createdAt,value
2019-05-30T00:01:56.244Z,100592.14
2019-05-30T00:04:24.765Z,100585.81
2019-05-30T00:06:54.301Z,100585.02
2019-05-30T00:09:22.804Z,100588.94
2019-05-30T00:11:51.193Z,100588.90
2019-05-30T00:14:19.591Z,100588.55
2019-05-30T00:16:47.992Z,100592.36
2019-05-30T00:19:16.391Z,100591.88
2019-05-30T00:21:44.798Z,100591.88
2019-05-30T00:24:13.270Z,100584.81
2019-05-30T00:26:41.928Z,100584.12
2019-05-30T00:29:10.339Z,100593.57
2019-05-30T00:31:38.733Z,100593.57
2019-05-30T00:34:07.505Z,100590.39
2019-05-30T00:36:35.992Z,100597.34
2019-05-30T00:39:06.687Z,100604.28
2019-05-30T00:41:35.116Z,100598.95
2019-05-30T00:44:04.363Z,100592.30
2019-05-30T00:46:32.826Z,100597.83
2019-05-30T00:49:02.426Z,100598.20
2019-05-30T00:51:30.878Z,100593.31
2019-05-30T00:54:00.585Z,100593.31
2019-05-30T00:56:29.318Z,100592.95
2019-05-30T00:58:58.649Z,100592.48
2019-05-30T01:01:27.184Z,100592.76
2019-05-30T01:03:56.611Z,100582.36
2019-05-30T01:06:25.064Z,100587.55
2019-05-30T01:08:53.477Z,100585.34
2019-05-30T01:11:21.958Z,100591.54
2019-05-30T01:13:50.540Z,100588.39
2019-05-30T01:16:19.036Z,100589.51
2019-05-30T01:18:47.889Z,100589.25
2019-05-30T01:21:16.476Z,100587.70
2019-05-30T01:23:44.865Z,100589.80
2019-05-30T01:26:13.692Z,100584.38
2019-05-30T01:28:42.146Z,100584.38
2019-05-30T01:31:11.662Z,100585.26
2019-05-30T01:33:40.192Z,100583.25
2019-05-30T01:36:08.681Z,100583.25
2019-05-30T01:38:37.114Z,100585.34
2019-05-30T01:41:05.934Z,100577.19
2019-05-30T01:43:34.441Z,100526.02
2019-05-30T01:46:04.138Z,100588.95
2019-05-30T01:48:32.813Z,100588.12
2019-05-30T01:51:02.383Z,100586.63
2019-05-30T01:53:30.808Z,100587.34
2019-05-30T01:56:00.554Z,100587.34
2019-05-30T01:58:29.109Z,100582.31
2019-05-30T02:00:58.794Z,100591.89
2019-05-30T02:03:27.378Z,100583.03
2019-05-30T02:05:56.025Z,100582.20
2019-05-30T02:08:24.454Z,100578.42
2019-05-30T02:10:52.943Z,100583.23
2019-05-30T02:13:21.402Z,100581.20
2019-05-30T02:15:50.229Z,100577.31
2019-05-30T02:18:18.651Z,100576.83
2019-05-30T02:20:47.040Z,100583.56
2019-05-30T02:23:15.519Z,100583.84
2019-05-30T02:25:44.003Z,100582.77
2019-05-30T02:28:12.433Z,100588.33
2019-05-30T02:30:40.998Z,100587.63
2019-05-30T02:33:12.315Z,100578.33
2019-05-30T02:35:40.217Z,100584.68
2019-05-30T02:38:10.016Z,100585.58
2019-05-30T02:40:38.796Z,100587.45
2019-05-30T02:43:07.733Z,100588.77
2019-05-30T02:45:37.366Z,100597.34
2019-05-30T02:48:07.335Z,100589.43
2019-05-30T02:50:35.883Z,100599.91
2019-05-30T02:53:05.985Z,100598.80
2019-05-30T02:55:34.541Z,100596.84
2019-05-30T02:58:03.759Z,100596.81
2019-05-30T03:00:35.323Z,100599.64
2019-05-30T03:03:06.180Z,100598.67
2019-05-30T03:05:34.660Z,100604.72
2019-05-30T03:08:04.940Z,100606.21
2019-05-30T03:10:33.607Z,100607.35
2019-05-30T03:13:03.894Z,100605.38
2019-05-30T03:15:33.519Z,100598.66
2019-05-30T03:18:02.260Z,100604.58
2019-05-30T03:20:31.363Z,100603.92
2019-05-30T03:23:00.136Z,100602.95
2019-05-30T03:28:34.306Z,100608.02
2019-05-30T03:31:10.418Z,100613.75
2019-05-30T03:33:41.797Z,100612.14
2019-05-30T03:36:14.369Z,100615.75
2019-05-30T03:38:36.044Z,100614.42
2019-05-30T03:41:06.755Z,100615.47
2019-05-30T03:43:34.893Z,100625.12
2019-05-30T03:46:06.113Z,100621.30
2019-05-30T03:48:35.900Z,100623.11
2019-05-30T03:51:09.361Z,100629.42
2019-05-30T03:53:37.263Z,100629.95
2019-05-30T03:56:09.896Z,100628.71
2019-05-30T03:58:50.996Z,100634.05
2019-05-30T04:01:37.522Z,100633.05
2019-05-30T04:04:19.168Z,100636.20
2019-05-30T04:06:50.935Z,100640.96
2019-05-30T04:09:24.651Z,100637.84
2019-05-30T04:12:12.710Z,100600.28
2019-05-30T04:14:44.535Z,100644.84
2019-05-30T04:17:15.197Z,100643.94
2019-05-30T04:19:43.082Z,100646.44
2019-05-30T04:22:13.375Z,100650.30
2019-05-30T04:24:41.825Z,100648.00
2019-05-30T04:27:11.945Z,100652.80
2019-05-30T04:29:40.368Z,100659.11
2019-05-30T04:32:10.240Z,100657.03
2019-05-30T04:34:38.857Z,100655.05
2019-05-30T04:37:08.272Z,100658.73
2019-05-30T04:39:36.740Z,100660.13
2019-05-30T04:42:05.275Z,100661.16
2019-05-30T04:44:33.679Z,100659.61
2019-05-30T04:47:02.093Z,100659.08
2019-05-30T04:49:30.505Z,100655.91
2019-05-30T04:51:58.928Z,100652.78
2019-05-30T04:54:27.347Z,100650.91
2019-05-30T04:56:55.819Z,100661.13
2019-05-30T04:59:24.210Z,100662.40
2019-05-30T05:01:52.667Z,100662.40
2019-05-30T05:04:21.624Z,100664.23
2019-05-30T05:06:50.383Z,100666.22
2019-05-30T05:09:20.303Z,100666.22
2019-05-30T05:11:48.903Z,100665.27
2019-05-30T05:14:18.456Z,100659.61
2019-05-30T05:16:46.984Z,100670.36
2019-05-30T05:19:17.065Z,100669.14
2019-05-30T05:21:45.703Z,100673.94
2019-05-30T05:24:15.431Z,100666.75
2019-05-30T05:26:43.889Z,100674.26
2019-05-30T05:29:12.336Z,100666.23
2019-05-30T05:31:40.757Z,100666.32
2019-05-30T05:34:09.256Z,100661.19
2019-05-30T05:36:37.670Z,100660.72
2019-05-30T05:39:07.843Z,100662.71
2019-05-30T05:41:36.307Z,100661.77
2019-05-30T05:44:04.884Z,100672.88
2019-05-30T05:46:33.280Z,100669.91
2019-05-30T05:49:01.737Z,100671.25
2019-05-30T05:51:30.154Z,100675.26
2019-05-30T05:53:58.566Z,100669.94
2019-05-30T05:56:26.985Z,100677.38
2019-05-30T05:58:55.427Z,100676.21
2019-05-30T06:01:25.316Z,100677.84
2019-05-30T06:03:53.829Z,100690.93
2019-05-30T06:06:23.325Z,100689.02
2019-05-30T06:08:51.852Z,100688.45
2019-05-30T06:11:20.541Z,100683.36
2019-05-30T06:13:48.991Z,100684.95
2019-05-30T06:16:17.775Z,100693.11
2019-05-30T06:18:46.214Z,100691.95
2019-05-30T06:21:14.645Z,100694.34
2019-05-30T06:23:45.550Z,100695.66
2019-05-30T06:26:13.195Z,100698.86
2019-05-30T06:28:41.633Z,100697.92
2019-05-30T06:31:10.050Z,100702.77
2019-05-30T06:33:38.446Z,100695.34
2019-05-30T06:36:06.949Z,100698.91
2019-05-30T06:38:35.497Z,100702.75
2019-05-30T06:41:04.937Z,100698.78
2019-05-30T06:43:33.412Z,100700.19
2019-05-30T06:46:01.883Z,100712.33
2019-05-30T06:48:30.893Z,100699.69
2019-05-30T06:50:59.604Z,100700.33
2019-05-30T06:53:29.254Z,100702.50
2019-05-30T06:55:57.975Z,100699.16
2019-05-30T06:58:41.573Z,100699.86
2019-05-30T07:00:56.553Z,100694.03
2019-05-30T07:03:26.262Z,100692.00
2019-05-30T07:05:55.575Z,100693.41
2019-05-30T07:08:24.710Z,100694.72
2019-05-30T07:10:53.234Z,100692.24
2019-05-30T07:13:23.102Z,100689.59
2019-05-30T07:15:51.665Z,100699.39
2019-05-30T07:18:20.054Z,100687.58
2019-05-30T07:20:48.614Z,100693.67
2019-05-30T07:23:17.370Z,100689.05
2019-05-30T07:25:45.921Z,100693.77
2019-05-30T07:28:14.442Z,100698.71
2019-05-30T07:30:42.953Z,100698.58
2019-05-30T07:33:11.478Z,100694.73
2019-05-30T07:35:41.819Z,100700.42
2019-05-30T07:38:10.955Z,100696.34
2019-05-30T07:40:39.562Z,100697.34
2019-05-30T07:43:08.094Z,100696.93
2019-05-30T07:45:36.607Z,100701.46
2019-05-30T07:48:05.444Z,100701.87
2019-05-30T07:50:34.570Z,100704.02
2019-05-30T07:53:03.175Z,100700.41
2019-05-30T07:55:33.043Z,100700.01
2019-05-30T07:58:02.622Z,100707.34
2019-05-30T08:00:31.464Z,100700.51
2019-05-30T08:03:00.151Z,100701.22
2019-05-30T08:05:29.015Z,100705.16
2019-05-30T08:07:57.474Z,100701.77
2019-05-30T08:10:27.684Z,100700.05
2019-05-30T08:12:56.284Z,100697.21
2019-05-30T08:15:24.870Z,100701.47
2019-05-30T08:17:53.630Z,100698.59
2019-05-30T08:20:22.533Z,100695.91
2019-05-30T08:22:51.123Z,100695.11
2019-05-30T08:25:19.691Z,100697.20
2019-05-30T08:27:48.244Z,100684.13
2019-05-30T08:30:18.496Z,100676.38
2019-05-30T08:32:47.355Z,100681.95
2019-05-30T08:35:16.958Z,100683.05
2019-05-30T08:37:45.488Z,100684.23
2019-05-30T08:40:14.766Z,100682.06
2019-05-30T08:42:43.389Z,100678.44
2019-05-30T08:45:12.544Z,100682.36
2019-05-30T08:47:41.056Z,100674.24
2019-05-30T08:50:10.554Z,100680.50
2019-05-30T08:52:40.682Z,100683.57
2019-05-30T08:55:10.735Z,100672.16
2019-05-30T08:57:40.759Z,100676.95
2019-05-30T09:00:11.559Z,100673.56
2019-05-30T09:02:40.947Z,100666.62
2019-05-30T09:05:09.930Z,100663.27
2019-05-30T09:07:38.434Z,100665.59
2019-05-30T09:10:09.362Z,100660.69
2019-05-30T09:12:38.715Z,100660.91
2019-05-30T09:15:11.294Z,100651.88
2019-05-30T09:17:40.565Z,100652.20
2019-05-30T09:20:11.576Z,100643.87
2019-05-30T09:22:41.551Z,100642.25
2019-05-30T09:25:11.320Z,100642.27
2019-05-30T09:27:40.861Z,100641.84
2019-05-30T09:30:12.535Z,100642.00
2019-05-30T09:32:41.706Z,100643.00
2019-05-30T09:35:11.973Z,100635.98
2019-05-30T09:37:41.761Z,100635.05
2019-05-30T09:40:11.855Z,100646.34
2019-05-30T09:42:41.235Z,100645.69
2019-05-30T09:45:11.246Z,100639.66
2019-05-30T09:47:41.308Z,100602.11
2019-05-30T09:50:10.201Z,100638.66
2019-05-30T09:52:42.189Z,100639.64
2019-05-30T09:55:13.494Z,100637.95
2019-05-30T09:57:43.049Z,100632.79
2019-05-30T10:00:17.376Z,100630.55
2019-05-30T10:02:46.747Z,100637.70
2019-05-30T10:05:17.329Z,100628.58
2019-05-30T10:07:47.285Z,100630.41
2019-05-30T10:10:17.777Z,100623.49
2019-05-30T10:12:46.904Z,100616.81
2019-05-30T10:15:16.338Z,100587.93
2019-05-30T10:17:46.269Z,100611.02
2019-05-30T10:20:15.456Z,100619.68
2019-05-30T10:22:44.737Z,100618.84
2019-05-30T10:25:14.527Z,100616.36
2019-05-30T10:27:43.004Z,100608.89
2019-05-30T10:30:12.337Z,100611.84
2019-05-30T10:32:40.746Z,100612.47
2019-05-30T10:35:09.800Z,100613.42
2019-05-30T10:37:38.363Z,100605.78
2019-05-30T10:40:08.016Z,100608.98
2019-05-30T10:42:36.425Z,100605.78
2019-05-30T10:45:09.781Z,100604.69
2019-05-30T10:47:38.330Z,100608.09
2019-05-30T10:50:08.276Z,100609.35
2019-05-30T10:52:36.697Z,100614.91
2019-05-30T10:55:10.612Z,100603.86
2019-05-30T10:57:39.108Z,100606.67
2019-05-30T11:00:15.688Z,100601.80
2019-05-30T11:02:47.091Z,100597.83
2019-05-30T11:05:15.143Z,100603.16
2019-05-30T11:08:01.194Z,100598.31
2019-05-30T11:10:42.129Z,100592.31
2019-05-30T11:13:13.662Z,100589.91
2019-05-30T11:15:42.145Z,100592.64
2019-05-30T11:18:10.824Z,100588.25
2019-05-30T11:20:39.326Z,100590.56
2019-05-30T11:23:07.937Z,100577.58
2019-05-30T11:25:36.445Z,100567.97
2019-05-30T11:28:06.813Z,100556.70
2019-05-30T11:30:35.549Z,100564.70
2019-05-30T11:33:04.244Z,100558.64
2019-05-30T11:35:33.304Z,100561.57
2019-05-30T11:38:01.791Z,100558.22
2019-05-30T11:40:30.270Z,100539.30
2019-05-30T11:42:59.967Z,100549.94
2019-05-30T11:45:28.568Z,100545.02
2019-05-30T11:47:58.058Z,100547.00
2019-05-30T11:50:27.180Z,100556.32
2019-05-30T11:52:55.895Z,100550.05
2019-05-30T11:55:24.275Z,100550.48
2019-05-30T11:57:54.540Z,100550.09
2019-05-30T12:00:23.494Z,100546.29
2019-05-30T12:02:52.229Z,100552.79
2019-05-30T12:05:21.580Z,100552.39
2019-05-30T12:07:50.693Z,100544.11
2019-05-30T12:10:19.925Z,100548.16
2019-05-30T12:12:48.319Z,100546.25
2019-05-30T12:15:17.350Z,100543.08
2019-05-30T12:17:45.908Z,100548.27
2019-05-30T12:20:14.767Z,100545.31
2019-05-30T12:22:43.240Z,100540.16
2019-05-30T12:25:12.300Z,100542.89
2019-05-30T12:27:40.774Z,100545.92
2019-05-30T12:30:09.842Z,100550.61
2019-05-30T12:32:38.234Z,100536.09
2019-05-30T12:35:08.899Z,100544.91
2019-05-30T12:37:53.631Z,100543.89
2019-05-30T12:40:10.073Z,100544.10
2019-05-30T12:42:39.709Z,100544.80
2019-05-30T12:45:09.316Z,100546.09
2019-05-30T12:47:37.721Z,100546.35
2019-05-30T12:50:08.377Z,100535.02
2019-05-30T12:52:36.780Z,100540.09
2019-05-30T12:55:07.227Z,100540.41
2019-05-30T12:57:35.747Z,100540.23
2019-05-30T13:00:17.446Z,100535.84
2019-05-30T13:02:40.050Z,100538.10
2019-05-30T13:05:09.097Z,100535.63
2019-05-30T13:07:37.565Z,100537.81
2019-05-30T13:10:07.676Z,100525.84
2019-05-30T13:12:36.112Z,100532.36
2019-05-30T13:15:06.156Z,100533.38
2019-05-30T13:17:34.589Z,100531.08
2019-05-30T13:20:04.715Z,100535.05
2019-05-30T13:22:33.138Z,100531.66
2019-05-30T13:25:01.939Z,100538.94
2019-05-30T13:27:30.337Z,100531.95
2019-05-30T13:29:59.915Z,100497.36
2019-05-30T13:32:28.520Z,100530.41
2019-05-30T13:34:56.917Z,100533.30
2019-05-30T13:37:25.456Z,100531.67
2019-05-30T13:39:53.936Z,100536.33
2019-05-30T13:42:22.360Z,100539.11
2019-05-30T13:44:50.774Z,100543.44
2019-05-30T13:47:19.272Z,100546.02
2019-05-30T13:49:47.686Z,100544.65
2019-05-30T13:52:16.087Z,100541.05
2019-05-30T13:54:44.527Z,100545.32
2019-05-30T13:57:12.917Z,100545.00
2019-05-30T13:59:41.336Z,100546.84
2019-05-30T14:02:10.268Z,100537.11
2019-05-30T14:04:38.967Z,100535.98
2019-05-30T14:07:08.460Z,100547.02
2019-05-30T14:09:36.852Z,100543.21
2019-05-30T14:12:06.610Z,100551.09
2019-05-30T14:14:35.154Z,100544.36
2019-05-30T14:17:04.791Z,100540.50
2019-05-30T14:19:33.227Z,100540.03
2019-05-30T14:22:01.626Z,100536.31
2019-05-30T14:24:30.049Z,100545.89
2019-05-30T14:26:58.457Z,100536.45
2019-05-30T14:29:28.489Z,100541.34
2019-05-30T14:31:56.900Z,100540.25
2019-05-30T14:34:25.493Z,100533.48
2019-05-30T14:36:53.884Z,100539.69
2019-05-30T14:39:25.264Z,100541.02
2019-05-30T14:41:53.661Z,100543.55
2019-05-30T14:44:22.119Z,100543.25
2019-05-30T14:46:50.524Z,100539.92
2019-05-30T14:49:18.954Z,100540.41
2019-05-30T14:51:47.420Z,100542.48
2019-05-30T14:54:17.400Z,100524.74
2019-05-30T14:56:45.850Z,100534.27
2019-05-30T14:59:14.463Z,100536.20
2019-05-30T15:01:42.879Z,100534.56
2019-05-30T15:04:11.391Z,100531.84
2019-05-30T15:06:39.849Z,100539.70
2019-05-30T15:09:19.524Z,100536.98
2019-05-30T15:11:38.409Z,100537.48
2019-05-30T15:14:06.959Z,100533.39
2019-05-30T15:16:35.499Z,100540.67
2019-05-30T15:19:04.007Z,100538.61
2019-05-30T15:21:32.417Z,100528.96
2019-05-30T15:24:00.828Z,100530.11
2019-05-30T15:26:29.245Z,100537.59
2019-05-30T15:28:57.644Z,100536.43
2019-05-30T15:31:26.067Z,100542.06
2019-05-30T15:33:54.491Z,100545.92
2019-05-30T15:36:22.961Z,100545.98
2019-05-30T15:38:51.365Z,100550.63
2019-05-30T15:41:19.798Z,100515.92
2019-05-30T15:43:48.179Z,100554.77
2019-05-30T15:46:16.652Z,100553.82
2019-05-30T15:48:45.067Z,100549.79
2019-05-30T15:51:14.404Z,100548.16
2019-05-30T15:53:43.129Z,100544.99
2019-05-30T15:56:11.549Z,100551.61
2019-05-30T15:58:40.032Z,100550.09
2019-05-30T16:01:09.751Z,100556.18
2019-05-30T16:03:38.284Z,100549.85
2019-05-30T16:06:06.785Z,100542.73
2019-05-30T16:08:35.201Z,100544.42
2019-05-30T16:11:03.630Z,100548.28
2019-05-30T16:13:32.058Z,100551.12
2019-05-30T16:16:00.493Z,100554.33
2019-05-30T16:18:28.931Z,100549.84
2019-05-30T16:20:57.431Z,100557.28
2019-05-30T16:23:25.851Z,100556.47
2019-05-30T16:25:54.323Z,100551.02
2019-05-30T16:28:22.762Z,100555.68
2019-05-30T16:30:51.176Z,100560.64
2019-05-30T16:33:20.066Z,100558.86
2019-05-30T16:35:48.566Z,100560.42
2019-05-30T16:38:17.994Z,100554.84
2019-05-30T16:40:46.637Z,100559.56
2019-05-30T16:43:16.057Z,100558.45
2019-05-30T16:45:44.637Z,100558.70
2019-05-30T16:48:14.283Z,100552.23
2019-05-30T16:50:42.861Z,100555.19
2019-05-30T16:53:11.290Z,100558.64
2019-05-30T16:55:39.707Z,100561.83
2019-05-30T16:58:08.187Z,100560.09
2019-05-30T17:00:36.615Z,100557.98
2019-05-30T17:03:05.504Z,100561.55
2019-05-30T17:05:34.604Z,100557.64
2019-05-30T17:08:03.181Z,100559.61
2019-05-30T17:10:33.238Z,100563.71
2019-05-30T17:13:01.962Z,100553.77
2019-05-30T17:15:30.437Z,100562.22
2019-05-30T17:17:58.850Z,100553.43
2019-05-30T17:20:27.264Z,100555.08
2019-05-30T17:22:55.816Z,100554.40
2019-05-30T17:25:25.179Z,100550.13
2019-05-30T17:27:54.852Z,100559.66
2019-05-30T17:30:25.714Z,100552.76
2019-05-30T17:32:54.186Z,100555.17
2019-05-30T17:35:22.630Z,100558.00
2019-05-30T17:37:51.170Z,100557.20
2019-05-30T17:40:20.605Z,100561.71
2019-05-30T17:42:49.119Z,100528.20
2019-05-30T17:45:18.921Z,100560.02
2019-05-30T17:47:47.403Z,100559.56
2019-05-30T17:50:16.187Z,100562.77
2019-05-30T17:52:44.605Z,100564.16
2019-05-30T17:55:13.498Z,100567.86
2019-05-30T17:57:41.919Z,100570.13
2019-05-30T18:00:15.181Z,100565.19
2019-05-30T18:02:43.694Z,100568.83
2019-05-30T18:05:12.871Z,100569.20
2019-05-30T18:07:41.275Z,100566.81
2019-05-30T18:10:10.779Z,100574.69
2019-05-30T18:12:39.329Z,100574.03
2019-05-30T18:15:10.272Z,100573.05
2019-05-30T18:17:38.848Z,100575.25
2019-05-30T18:20:08.825Z,100573.21
2019-05-30T18:22:37.366Z,100575.84
2019-05-30T18:25:07.909Z,100579.00
2019-05-30T18:27:36.381Z,100574.17
2019-05-30T18:30:09.889Z,100584.49
2019-05-30T18:32:38.358Z,100586.30
2019-05-30T18:35:08.602Z,100596.38
2019-05-30T18:37:38.018Z,100563.58
2019-05-30T18:40:07.157Z,100588.27
2019-05-30T18:42:36.298Z,100592.98
2019-05-30T18:45:06.997Z,100590.41
2019-05-30T18:47:35.462Z,100594.30
2019-05-30T18:50:04.629Z,100599.69
2019-05-30T18:52:33.045Z,100600.32
2019-05-30T18:55:05.065Z,100606.01
2019-05-30T18:57:32.836Z,100610.80
2019-05-30T19:00:01.800Z,100610.27
2019-05-30T19:02:31.335Z,100612.59
2019-05-30T19:04:59.752Z,100608.80
2019-05-30T19:07:28.763Z,100611.66
2019-05-30T19:09:57.261Z,100615.91
2019-05-30T19:12:25.957Z,100616.45
2019-05-30T19:14:54.465Z,100620.70
2019-05-30T19:17:22.890Z,100612.42
2019-05-30T19:19:51.456Z,100615.55
2019-05-30T19:22:19.970Z,100618.16
2019-05-30T19:24:48.378Z,100621.62
2019-05-30T19:27:16.970Z,100623.98
2019-05-30T19:29:45.371Z,100629.45
2019-05-30T19:32:13.852Z,100631.61
2019-05-30T19:34:42.327Z,100635.86
2019-05-30T19:37:10.767Z,100638.66
2019-05-30T19:39:39.253Z,100639.16
2019-05-30T19:42:07.834Z,100649.83
2019-05-30T19:44:39.606Z,100640.03
2019-05-30T19:47:06.489Z,100649.00
2019-05-30T19:49:34.924Z,100651.46
2019-05-30T19:52:03.378Z,100649.63
2019-05-30T19:54:33.019Z,100649.55
2019-05-30T19:57:01.521Z,100647.75
2019-05-30T19:59:30.012Z,100651.75
2019-05-30T20:03:46.644Z,100650.84
2019-05-30T20:06:10.624Z,100654.08
2019-05-30T20:08:52.851Z,100661.55
2019-05-30T20:11:09.294Z,100653.19
2019-05-30T20:13:37.713Z,100653.19
2019-05-30T20:16:06.123Z,100650.20
2019-05-30T20:18:35.537Z,100657.73
2019-05-30T20:21:04.130Z,100659.20
2019-05-30T20:23:46.798Z,100651.75
2019-05-30T20:26:02.792Z,100662.22
2019-05-30T20:28:31.262Z,100667.59
2019-05-30T20:30:59.660Z,100664.25
2019-05-30T20:33:28.058Z,100665.55
2019-05-30T20:35:56.474Z,100669.66
2019-05-30T20:38:24.874Z,100667.13
2019-05-30T20:40:53.290Z,100661.66
2019-05-30T20:43:21.805Z,100662.64
2019-05-30T20:45:50.216Z,100658.63
2019-05-30T20:48:18.741Z,100660.58
2019-05-30T20:50:47.463Z,100661.97
2019-05-30T20:53:16.046Z,100668.16
2019-05-30T20:55:44.536Z,100667.28
2019-05-30T20:58:12.959Z,100667.73
2019-05-30T21:00:42.219Z,100665.09
2019-05-30T21:03:13.692Z,100666.02
2019-05-30T21:05:44.078Z,100677.26
2019-05-30T21:08:13.481Z,100673.98
2019-05-30T21:10:43.533Z,100676.48
2019-05-30T21:13:12.027Z,100679.98
2019-05-30T21:15:41.657Z,100681.33
2019-05-30T21:18:10.369Z,100676.59
2019-05-30T21:20:39.955Z,100682.66
2019-05-30T21:23:08.515Z,100679.33
2019-05-30T21:25:37.481Z,100677.30
2019-05-30T21:28:07.158Z,100678.19
2019-05-30T21:30:36.782Z,100681.41
2019-05-30T21:33:05.289Z,100689.84
2019-05-30T21:35:33.826Z,100699.33
2019-05-30T21:38:02.259Z,100694.30
2019-05-30T21:40:30.730Z,100700.47
2019-05-30T21:43:06.304Z,100700.16
2019-05-30T21:45:30.808Z,100696.87
2019-05-30T21:47:59.219Z,100699.84
2019-05-30T21:50:27.625Z,100694.48
2019-05-30T21:52:58.907Z,100693.46
2019-05-30T21:55:27.313Z,100694.17
2019-05-30T21:57:55.722Z,100700.05
2019-05-30T22:00:46.715Z,100702.61
2019-05-30T22:03:15.194Z,100707.85
2019-05-30T22:05:44.741Z,100709.83
2019-05-30T22:08:13.842Z,100706.44
2019-05-30T22:10:43.266Z,100714.67
2019-05-30T22:13:11.716Z,100708.26
2019-05-30T22:15:41.587Z,100709.48
2019-05-30T22:18:10.124Z,100713.73
2019-05-30T22:20:38.519Z,100713.41
2019-05-30T22:23:06.954Z,100716.38
2019-05-30T22:25:35.360Z,100712.95
2019-05-30T22:28:03.847Z,100716.57
2019-05-30T22:30:32.292Z,100707.40
2019-05-30T22:33:00.720Z,100713.97
2019-05-30T22:35:29.175Z,100711.69
2019-05-30T22:37:57.616Z,100709.13
2019-05-30T22:40:26.023Z,100711.73
2019-05-30T22:42:54.478Z,100705.95
2019-05-30T22:45:22.942Z,100707.28
2019-05-30T22:47:52.483Z,100704.87
2019-05-30T22:50:20.851Z,100704.67
2019-05-30T22:52:49.244Z,100703.91
2019-05-30T22:55:17.673Z,100706.18
2019-05-30T22:57:46.443Z,100700.98
2019-05-30T23:00:15.237Z,100707.70
2019-05-30T23:02:43.709Z,100707.62
2019-05-30T23:05:12.143Z,100707.94
2019-05-30T23:07:40.570Z,100708.55
2019-05-30T23:10:09.494Z,100705.78
2019-05-30T23:12:37.898Z,100701.42
2019-05-30T23:15:07.232Z,100697.25
2019-05-30T23:17:35.705Z,100693.36
2019-05-30T23:20:06.796Z,100692.50
2019-05-30T23:22:35.202Z,100696.56
2019-05-30T23:25:05.514Z,100702.48
2019-05-30T23:27:34.143Z,100702.07
2019-05-30T23:30:02.608Z,100703.45
2019-05-30T23:32:31.058Z,100702.26
2019-05-30T23:34:59.456Z,100698.54
2019-05-30T23:37:27.841Z,100698.86
2019-05-30T23:39:56.872Z,100701.66
2019-05-30T23:42:25.315Z,100708.97
2019-05-30T23:44:53.734Z,100707.36
2019-05-30T23:47:22.199Z,100701.23
2019-05-30T23:49:51.731Z,100699.20
2019-05-30T23:52:20.262Z,100708.07
2019-05-30T23:54:49.949Z,100700.48
2019-05-30T23:57:18.391Z,100697.66
2019-05-30T23:59:46.830Z,100694.03
